Arborfield, Canada
Current Conditions -  °F | °C
As of 3:00 PM on Monday 24 Nov 2014 (Local Time) from CYBU Reporting Station
Overcast Overcast  
Wind Chill:   Ceiling: 3600
Heat Index: 18°   Visibility: 9mi
Dew Point: 14°   Wind: 9mph
Humidity: 86%   Direction: 280°W
Pressure: 29.91"   Gusts: NA
Location:  53.12°N, 103.65°W
Report Text: CYBU 242100Z AUTO 28008KT 9SM OVC036 M08/M10 A2991 RMK SLP163
Loading
Personal Weather Stations






























Interactive Weather Map New forecast layout! Learn more

10-Day Weather Forecast

Advertisements
Track Severe Weather on mobile